Time;durP1;ratioP1;P1;durP2;ratioP2;P2;SDS_P1;SDS_P2;PMS_P1;PMS_P2;Temp;Humidity;BMP_temperature;BMP_pressure;BME280_temperature;BME280_humidity;BME280_pressure;Samples;Min_cycle;Max_cycle;Signal;HPM_P1;HPM_P2
2022/11/09 00:00:53;;;;;;;;;;;13.30;99.90;;;;;;5071452;28;20451;-63
2022/11/09 00:03:21;;;;;;;;;;;13.30;99.90;;;;;;5071579;28;19972;-63
2022/11/09 00:05:57;;;;;;;;;;;13.30;99.90;;;;;;5071217;28;19971;-63
2022/11/09 00:08:25;;;;;;;;;;;13.30;99.90;;;;;;5031738;28;19975;-63
2022/11/09 00:10:52;;;;;;;;;;;13.30;99.90;;;;;;5033702;28;20364;-63
2022/11/09 00:13:20;;;;;;;;;;;13.00;99.90;;;;;;5051569;28;19968;-63
2022/11/09 00:15:49;;;;;;;;;;;12.80;99.90;;;;;;5051267;28;19976;-63
2022/11/09 00:18:16;;;;;;;;;;;12.70;99.90;;;;;;5051515;28;20475;-63
2022/11/09 00:20:44;;;;;;;;;;;12.40;99.90;;;;;;5051447;28;20051;-63
2022/11/09 00:23:16;;;;;;;;;;;12.30;99.90;;;;;;5059798;28;20410;-63
2022/11/09 00:25:46;;;;;;;;;;;12.20;99.90;;;;;;5063946;28;20075;-63
2022/11/09 00:28:14;;;;;;;;;;;12.20;99.90;;;;;;5065879;28;20416;-63
2022/11/09 00:30:43;;;;;;;;;;;12.20;99.90;;;;;;5051255;28;19969;-62
2022/11/09 00:33:11;;;;;;;;;;;12.30;99.90;;;;;;5051658;28;19968;-63
2022/11/09 00:35:39;;;;;;;;;;;12.40;99.90;;;;;;5051097;28;20441;-63
2022/11/09 00:38:06;;;;;;;;;;;12.40;99.90;;;;;;5051400;28;19975;-62
2022/11/09 00:40:36;;;;;;;;;;;12.40;99.90;;;;;;5050901;28;19990;-64
2022/11/09 00:43:15;;;;;;;;;;;12.60;99.90;;;;;;5051713;28;20128;-63
2022/11/09 00:45:43;;;;;;;;;;;12.70;99.90;;;;;;5051053;28;20026;-63
2022/11/09 00:48:10;;;;;;;;;;;12.70;99.90;;;;;;5053429;28;19972;-63
2022/11/09 00:50:38;;;;;;;;;;;12.60;99.90;;;;;;5054679;28;20611;-63
2022/11/09 00:53:06;;;;;;;;;;;12.40;99.90;;;;;;5054943;28;19986;-63
2022/11/09 00:55:34;;;;;;;;;;;12.20;99.90;;;;;;5062790;28;20022;-63
2022/11/09 00:58:03;;;;;;;;;;;12.10;99.90;;;;;;5054722;28;20455;-63
2022/11/09 01:00:30;;;;;;;;;;;12.10;99.90;;;;;;5054315;28;20067;-63
2022/11/09 01:02:58;;;;;;;;;;;12.20;99.90;;;;;;5064284;28;19968;-63
2022/11/09 01:05:26;;;;;;;;;;;12.30;99.90;;;;;;5074098;28;19968;-63
2022/11/09 01:07:53;;;;;;;;;;;12.40;99.90;;;;;;5057885;28;19972;-62
2022/11/09 01:10:22;;;;;;;;;;;12.50;99.90;;;;;;5054549;28;20110;-63
2022/11/09 01:12:49;;;;;;;;;;;12.60;99.90;;;;;;5054809;28;19981;-63
2022/11/09 01:15:18;;;;;;;;;;;12.60;99.90;;;;;;5054313;28;19968;-63
2022/11/09 01:17:46;;;;;;;;;;;12.60;99.90;;;;;;5054378;28;20150;-63
2022/11/09 01:20:14;;;;;;;;;;;12.70;99.90;;;;;;5053802;28;19974;-63
2022/11/09 01:22:42;;;;;;;;;;;12.70;99.90;;;;;;5058281;28;20017;-63
2022/11/09 01:25:10;;;;;;;;;;;12.70;99.90;;;;;;5065713;28;19978;-63
2022/11/09 01:27:37;;;;;;;;;;;12.80;99.90;;;;;;5074162;28;19972;-63
2022/11/09 01:30:06;;;;;;;;;;;12.70;99.90;;;;;;5073947;28;19971;-62
2022/11/09 01:32:35;;;;;;;;;;;12.70;99.90;;;;;;5073978;28;20058;-63
2022/11/09 01:35:02;;;;;;;;;;;12.80;99.90;;;;;;5073754;28;19978;-63
2022/11/09 01:37:30;;;;;;;;;;;12.70;99.90;;;;;;5058026;28;19976;-63
2022/11/09 01:39:58;;;;;;;;;;;12.50;99.90;;;;;;5053760;28;19978;-62
2022/11/09 01:42:26;;;;;;;;;;;12.30;99.90;;;;;;5053941;28;19973;-62
2022/11/09 01:45:12;;;;;;;;;;;12.30;99.90;;;;;;5053786;28;19972;-62
2022/11/09 01:47:41;;;;;;;;;;;12.20;99.90;;;;;;5053733;28;19972;-63
2022/11/09 01:50:11;;;;;;;;;;;12.10;99.90;;;;;;5053561;28;19968;-63
2022/11/09 01:52:40;;;;;;;;;;;12.10;99.90;;;;;;5056926;28;19964;-63
2022/11/09 01:55:10;;;;;;;;;;;12.00;99.90;;;;;;5061512;28;19964;-63
2022/11/09 01:57:39;;;;;;;;;;;12.00;99.90;;;;;;5053502;28;19976;-62
2022/11/09 02:00:08;;;;;;;;;;;12.00;99.90;;;;;;5052450;28;19995;-63
2022/11/09 02:02:37;;;;;;;;;;;12.00;99.90;;;;;;5053676;28;19972;-63
2022/11/09 02:05:08;;;;;;;;;;;12.00;99.90;;;;;;5053299;28;19968;-63
2022/11/09 02:07:37;;;;;;;;;;;12.00;99.90;;;;;;5053374;28;20344;-62
2022/11/09 02:10:08;;;;;;;;;;;12.00;99.90;;;;;;5052893;28;19972;-63
2022/11/09 02:12:36;;;;;;;;;;;12.00;99.90;;;;;;5053374;28;19968;-63
2022/11/09 02:15:05;;;;;;;;;;;12.00;99.90;;;;;;5053193;28;19972;-63
2022/11/09 02:17:34;;;;;;;;;;;12.00;99.90;;;;;;5053269;28;19978;-63
2022/11/09 02:20:02;;;;;;;;;;;12.00;99.90;;;;;;5052997;28;19972;-63
2022/11/09 02:22:33;;;;;;;;;;;12.10;99.90;;;;;;5055434;28;20098;-63
2022/11/09 02:25:02;;;;;;;;;;;12.10;99.90;;;;;;5064427;28;20058;-62
2022/11/09 02:27:29;;;;;;;;;;;12.10;99.90;;;;;;5065204;28;20364;-63
2022/11/09 02:29:58;;;;;;;;;;;12.20;99.90;;;;;;5052923;28;19979;-63
2022/11/09 02:32:28;;;;;;;;;;;12.20;99.90;;;;;;5052955;28;19990;-62
2022/11/09 02:34:55;;;;;;;;;;;12.20;99.90;;;;;;5053056;28;20030;-62
2022/11/09 02:37:27;;;;;;;;;;;12.30;99.90;;;;;;5052700;28;19972;-63
2022/11/09 02:39:57;;;;;;;;;;;12.40;99.90;;;;;;5052438;28;20452;-63
2022/11/09 02:42:25;;;;;;;;;;;12.50;99.90;;;;;;5052874;28;19972;-63
2022/11/09 02:44:55;;;;;;;;;;;12.60;99.90;;;;;;5052444;28;19976;-63
2022/11/09 02:47:23;;;;;;;;;;;12.70;99.90;;;;;;5052581;28;19972;-62
2022/11/09 02:49:50;;;;;;;;;;;12.80;99.90;;;;;;5052214;28;19972;-63
2022/11/09 02:52:18;;;;;;;;;;;12.80;99.90;;;;;;5053338;28;20063;-63
2022/11/09 02:54:46;;;;;;;;;;;12.80;99.90;;;;;;5063988;28;19970;-63
2022/11/09 02:57:15;;;;;;;;;;;12.70;99.90;;;;;;5072393;28;20003;-62
2022/11/09 02:59:43;;;;;;;;;;;12.70;99.90;;;;;;5072217;28;19979;-63
2022/11/09 03:02:10;;;;;;;;;;;12.70;99.90;;;;;;5058988;28;19979;-62
2022/11/09 03:04:38;;;;;;;;;;;12.70;99.90;;;;;;5052298;28;20344;-63
2022/11/09 03:07:07;;;;;;;;;;;12.70;99.90;;;;;;5051819;28;20350;-63
2022/11/09 03:09:35;;;;;;;;;;;12.70;99.90;;;;;;5052250;28;19972;-63
2022/11/09 03:12:27;;;;;;;;;;;12.70;99.90;;;;;;5051982;28;19975;-63
2022/11/09 03:14:52;;;;;;;;;;;12.70;99.90;;;;;;5052079;28;20352;-64
2022/11/09 03:17:20;;;;;;;;;;;12.80;99.90;;;;;;5052074;28;19975;-63
2022/11/09 03:19:47;;;;;;;;;;;12.70;99.90;;;;;;5051708;28;19968;-63
2022/11/09 03:22:15;;;;;;;;;;;12.80;99.90;;;;;;5052392;28;20019;-63
2022/11/09 03:24:43;;;;;;;;;;;12.70;99.90;;;;;;5063781;28;19963;-63
2022/11/09 03:27:10;;;;;;;;;;;12.70;99.90;;;;;;5071697;28;19978;-63
2022/11/09 03:29:38;;;;;;;;;;;12.70;99.90;;;;;;5072070;28;19976;-62
2022/11/09 03:32:07;;;;;;;;;;;12.70;99.90;;;;;;5072006;28;20481;-63
2022/11/09 03:34:35;;;;;;;;;;;12.70;99.90;;;;;;5071935;28;20045;-62
2022/11/09 03:37:03;;;;;;;;;;;12.70;99.90;;;;;;5050999;28;19968;-63
2022/11/09 03:39:31;;;;;;;;;;;12.60;99.90;;;;;;5051755;28;20458;-62
2022/11/09 03:41:59;;;;;;;;;;;12.70;99.90;;;;;;5052062;28;19972;-63
2022/11/09 03:44:27;;;;;;;;;;;12.70;99.90;;;;;;5051925;28;20433;-63
2022/11/09 03:46:55;;;;;;;;;;;12.60;99.90;;;;;;5051617;28;20070;-63
2022/11/09 03:49:24;;;;;;;;;;;12.60;99.90;;;;;;5051812;28;20475;-63
2022/11/09 03:51:52;;;;;;;;;;;12.60;99.90;;;;;;5051414;28;20015;-63
2022/11/09 03:54:19;;;;;;;;;;;12.60;99.90;;;;;;5060839;28;20393;-63
2022/11/09 03:56:47;;;;;;;;;;;12.70;99.90;;;;;;5071621;28;19974;-63
2022/11/09 03:59:15;;;;;;;;;;;12.70;99.90;;;;;;5071619;28;20071;-63
2022/11/09 04:01:42;;;;;;;;;;;12.70;99.90;;;;;;5071533;28;19972;-63
2022/11/09 04:04:10;;;;;;;;;;;12.70;99.90;;;;;;5071669;28;20436;-62
2022/11/09 04:06:39;;;;;;;;;;;12.70;99.90;;;;;;5065226;28;19986;-62
2022/11/09 04:09:07;;;;;;;;;;;12.70;99.90;;;;;;5051931;28;19972;-62
2022/11/09 04:11:35;;;;;;;;;;;12.70;99.90;;;;;;5051521;28;20508;-62
2022/11/09 04:14:03;;;;;;;;;;;12.70;99.90;;;;;;5051625;28;19971;-63
2022/11/09 04:16:32;;;;;;;;;;;12.60;99.90;;;;;;5051167;28;20336;-63
2022/11/09 04:18:59;;;;;;;;;;;12.70;99.90;;;;;;5051580;28;19978;-63
2022/11/09 04:21:27;;;;;;;;;;;12.70;99.90;;;;;;5051178;28;19971;-63
2022/11/09 04:23:56;;;;;;;;;;;12.70;99.90;;;;;;5062999;28;20471;-63
2022/11/09 04:26:24;;;;;;;;;;;12.70;99.90;;;;;;5066562;28;19976;-62
2022/11/09 04:28:52;;;;;;;;;;;12.70;99.90;;;;;;5055402;28;20052;-62
2022/11/09 04:31:19;;;;;;;;;;;12.70;99.90;;;;;;5054991;28;20352;-62
2022/11/09 04:33:54;;;;;;;;;;;12.70;99.90;;;;;;5055198;28;19968;-62
2022/11/09 04:36:22;;;;;;;;;;;12.60;99.90;;;;;;5054964;28;20360;-62
2022/11/09 04:38:49;;;;;;;;;;;12.60;99.90;;;;;;5055123;28;19968;-62
2022/11/09 04:41:18;;;;;;;;;;;12.60;99.90;;;;;;5054765;28;19974;-62
2022/11/09 04:43:46;;;;;;;;;;;12.60;99.90;;;;;;5054872;28;19975;-62
2022/11/09 04:46:14;;;;;;;;;;;12.60;99.90;;;;;;5054771;28;20019;-62
2022/11/09 04:48:44;;;;;;;;;;;12.60;99.90;;;;;;5054919;28;19972;-62
2022/11/09 04:51:12;;;;;;;;;;;12.60;99.90;;;;;;5054925;28;19972;-62
2022/11/09 04:53:39;;;;;;;;;;;12.60;99.90;;;;;;5056160;28;19964;-62
2022/11/09 04:56:08;;;;;;;;;;;12.60;99.90;;;;;;5054316;28;19964;-62
2022/11/09 04:58:37;;;;;;;;;;;12.60;99.90;;;;;;5054555;28;19968;-62
2022/11/09 05:01:06;;;;;;;;;;;12.50;99.90;;;;;;5054222;28;19968;-62
2022/11/09 05:03:34;;;;;;;;;;;12.50;99.90;;;;;;5054554;28;19979;-62
2022/11/09 05:06:30;;;;;;;;;;;12.50;99.90;;;;;;5054045;28;20038;-62
2022/11/09 05:08:50;;;;;;;;;;;12.50;99.90;;;;;;5054608;28;19972;-62
2022/11/09 05:11:18;;;;;;;;;;;12.50;99.90;;;;;;5054400;28;19968;-61
2022/11/09 05:13:48;;;;;;;;;;;12.40;99.90;;;;;;5054632;28;19976;-61
2022/11/09 05:16:16;;;;;;;;;;;12.50;99.90;;;;;;5054180;28;19978;-62
2022/11/09 05:18:44;;;;;;;;;;;12.40;99.90;;;;;;5053742;28;19964;-62
2022/11/09 05:21:12;;;;;;;;;;;12.50;99.90;;;;;;5054013;28;20067;-62
2022/11/09 05:26:26;;;;;;;;;;;12.40;99.90;;;;;;5056162;28;20474;-62
2022/11/09 05:28:56;;;;;;;;;;;12.40;99.90;;;;;;5054130;28;20071;-62
2022/11/09 05:31:24;;;;;;;;;;;12.40;99.90;;;;;;5053359;28;19971;-63
2022/11/09 05:33:52;;;;;;;;;;;12.40;99.90;;;;;;5049284;28;19968;-62
2022/11/09 05:36:19;;;;;;;;;;;12.40;99.90;;;;;;5042590;28;20071;-62
2022/11/09 05:38:48;;;;;;;;;;;12.40;99.90;;;;;;5041825;28;20077;-62
2022/11/09 05:41:16;;;;;;;;;;;12.30;99.90;;;;;;5044014;28;19987;-63
2022/11/09 05:43:44;;;;;;;;;;;12.40;99.90;;;;;;5043601;28;19972;-62
2022/11/09 05:46:13;;;;;;;;;;;12.30;99.90;;;;;;5043485;28;19983;-63
2022/11/09 05:48:42;;;;;;;;;;;12.30;99.90;;;;;;5041937;28;20018;-62
2022/11/09 05:51:11;;;;;;;;;;;12.30;99.90;;;;;;5042948;28;20095;-62
2022/11/09 05:53:39;;;;;;;;;;;12.30;99.90;;;;;;5043484;28;20029;-62
2022/11/09 05:56:13;;;;;;;;;;;12.30;99.90;;;;;;5043304;28;20364;-63
2022/11/09 05:58:41;;;;;;;;;;;12.30;99.90;;;;;;5041533;28;20003;-62
2022/11/09 06:01:10;;;;;;;;;;;12.30;99.90;;;;;;5043070;28;19976;-63
2022/11/09 06:03:39;;;;;;;;;;;12.20;99.90;;;;;;5042894;28;20034;-62
2022/11/09 06:06:07;;;;;;;;;;;12.20;99.90;;;;;;5041288;28;19979;-62
2022/11/09 06:08:35;;;;;;;;;;;12.10;99.90;;;;;;5041236;28;20499;-62
2022/11/09 06:11:05;;;;;;;;;;;12.20;99.90;;;;;;5042155;28;19971;-62
2022/11/09 06:13:33;;;;;;;;;;;12.10;99.90;;;;;;5044068;28;19978;-62
2022/11/09 06:16:01;;;;;;;;;;;12.20;99.90;;;;;;5042718;28;19964;-62
2022/11/09 06:18:30;;;;;;;;;;;12.20;99.90;;;;;;5042101;28;20059;-62
2022/11/09 06:21:00;;;;;;;;;;;12.20;99.90;;;;;;5043185;28;19964;-62
2022/11/09 06:23:29;;;;;;;;;;;12.20;99.90;;;;;;5043869;28;19968;-62
2022/11/09 06:25:57;;;;;;;;;;;12.20;99.90;;;;;;5042662;28;20717;-63
2022/11/09 06:28:25;;;;;;;;;;;12.20;99.90;;;;;;5042167;28;19987;-62
2022/11/09 06:30:53;;;;;;;;;;;12.20;99.90;;;;;;5042424;28;19976;-62
2022/11/09 06:33:20;;;;;;;;;;;12.10;99.90;;;;;;5041984;28;19976;-62
2022/11/09 06:35:49;;;;;;;;;;;12.20;99.90;;;;;;5042469;28;19972;-62
2022/11/09 06:38:25;;;;;;;;;;;12.20;99.90;;;;;;5042189;28;19976;-62
2022/11/09 06:40:53;;;;;;;;;;;12.20;99.90;;;;;;5042711;28;19968;-63
2022/11/09 06:43:21;;;;;;;;;;;12.20;99.90;;;;;;5042929;28;19979;-62
2022/11/09 06:45:49;;;;;;;;;;;12.20;99.90;;;;;;5041836;28;21077;-62
2022/11/09 06:48:17;;;;;;;;;;;12.20;99.90;;;;;;5039709;28;19972;-62
2022/11/09 06:50:45;;;;;;;;;;;12.20;99.90;;;;;;5041011;28;20543;-63
2022/11/09 06:53:13;;;;;;;;;;;12.20;99.90;;;;;;5042137;28;19976;-63
2022/11/09 06:55:42;;;;;;;;;;;12.20;99.90;;;;;;5041672;28;19972;-63
2022/11/09 06:58:18;;;;;;;;;;;12.20;99.90;;;;;;5041562;28;19976;-62
2022/11/09 07:00:46;;;;;;;;;;;12.20;99.90;;;;;;5041115;28;19972;-62
2022/11/09 07:03:14;;;;;;;;;;;12.30;99.90;;;;;;5041732;28;20090;-62
2022/11/09 07:05:42;;;;;;;;;;;12.40;99.90;;;;;;5041384;28;20525;-61
2022/11/09 07:08:09;;;;;;;;;;;12.70;99.90;;;;;;5039585;28;19982;-61
2022/11/09 07:10:37;;;;;;;;;;;12.70;99.90;;;;;;5041163;28;19972;-61
2022/11/09 07:13:06;;;;;;;;;;;12.90;99.90;;;;;;5042109;28;20005;-62
2022/11/09 07:15:35;;;;;;;;;;;12.90;99.90;;;;;;5041813;28;19968;-61
2022/11/09 07:18:03;;;;;;;;;;;13.00;99.90;;;;;;5039625;28;19964;-61
2022/11/09 07:20:31;;;;;;;;;;;12.90;99.90;;;;;;5042540;28;19968;-61
2022/11/09 07:22:59;;;;;;;;;;;12.80;99.90;;;;;;5054584;28;19970;-62
2022/11/09 07:25:27;;;;;;;;;;;12.80;99.90;;;;;;5062213;28;19974;-63
2022/11/09 07:27:54;;;;;;;;;;;12.80;99.90;;;;;;5071943;28;19971;-61
2022/11/09 07:30:23;;;;;;;;;;;12.70;99.90;;;;;;5086988;22;19972;-64
2022/11/09 07:32:51;;;;;;;;;;;12.70;99.90;;;;;;5063181;28;19971;-64
2022/11/09 07:35:39;;;;;;;;;;;12.60;99.90;;;;;;5071987;28;19968;-64
2022/11/09 07:38:07;;;;;;;;;;;12.50;99.90;;;;;;5072223;28;19978;-64
2022/11/09 07:40:35;;;;;;;;;;;12.60;99.90;;;;;;5071940;28;19971;-64
2022/11/09 07:43:03;;;;;;;;;;;12.50;99.90;;;;;;5071671;28;19978;-64
2022/11/09 07:45:33;;;;;;;;;;;12.50;99.90;;;;;;5071870;28;19968;-64
2022/11/09 07:48:02;;;;;;;;;;;12.50;99.90;;;;;;5071910;28;19967;-64
2022/11/09 07:50:30;;;;;;;;;;;12.50;99.90;;;;;;5071509;28;19974;-64
2022/11/09 07:52:58;;;;;;;;;;;12.40;99.90;;;;;;5071149;28;19968;-64
2022/11/09 07:55:27;;;;;;;;;;;12.40;99.90;;;;;;5061867;28;19968;-64
2022/11/09 07:57:55;;;;;;;;;;;12.40;99.90;;;;;;5073712;28;19993;-64
2022/11/09 08:00:23;;;;;;;;;;;12.40;99.90;;;;;;5075393;28;19968;-64
2022/11/09 08:02:52;;;;;;;;;;;12.40;99.90;;;;;;5075446;28;20067;-64
2022/11/09 08:05:19;;;;;;;;;;;12.30;99.90;;;;;;5075768;28;19968;-64
2022/11/09 08:07:47;;;;;;;;;;;12.40;99.90;;;;;;5075714;28;19967;-64
2022/11/09 08:10:15;;;;;;;;;;;12.40;99.90;;;;;;5075302;28;19968;-64
2022/11/09 08:12:43;;;;;;;;;;;12.40;99.90;;;;;;5075328;28;19975;-64
2022/11/09 08:15:11;;;;;;;;;;;12.30;99.90;;;;;;5075421;28;20340;-64
2022/11/09 08:17:38;;;;;;;;;;;12.30;99.90;;;;;;5075407;28;20372;-64
2022/11/09 08:20:08;;;;;;;;;;;12.40;99.90;;;;;;5075277;28;19971;-64
2022/11/09 08:22:40;;;;;;;;;;;12.40;99.90;;;;;;5075130;28;19976;-64
2022/11/09 08:25:08;;;;;;;;;;;12.40;99.90;;;;;;5064800;28;20070;-64
2022/11/09 08:27:39;;;;;;;;;;;12.40;99.90;;;;;;5075152;28;20352;-64
2022/11/09 08:30:07;;;;;;;;;;;12.40;99.90;;;;;;5074546;28;19967;-64
2022/11/09 08:32:35;;;;;;;;;;;12.40;99.90;;;;;;5075132;28;20050;-64
2022/11/09 08:35:03;;;;;;;;;;;12.50;99.90;;;;;;5075191;28;20025;-64
2022/11/09 08:37:33;;;;;;;;;;;12.40;99.90;;;;;;5074977;28;19978;-64
2022/11/09 08:40:01;;;;;;;;;;;12.40;99.90;;;;;;5074736;28;19974;-64
2022/11/09 08:42:29;;;;;;;;;;;12.50;99.90;;;;;;5074997;28;20328;-64
2022/11/09 08:44:56;;;;;;;;;;;12.60;99.90;;;;;;5074966;28;19978;-64
2022/11/09 08:47:24;;;;;;;;;;;12.60;99.90;;;;;;5074908;28;19972;-64
2022/11/09 08:49:52;;;;;;;;;;;12.60;99.90;;;;;;5074647;28;20167;-64
2022/11/09 08:52:19;;;;;;;;;;;12.70;99.90;;;;;;5074546;28;20527;-64
2022/11/09 08:54:48;;;;;;;;;;;12.70;99.90;;;;;;5067338;28;19970;-64
2022/11/09 08:57:17;;;;;;;;;;;12.80;99.90;;;;;;5071791;28;19968;-64
2022/11/09 08:59:45;;;;;;;;;;;12.90;99.90;;;;;;5074194;28;20452;-64
2022/11/09 09:02:13;;;;;;;;;;;13.20;99.90;;;;;;5074645;28;19974;-65
2022/11/09 09:04:41;;;;;;;;;;;13.30;99.90;;;;;;5074583;28;20021;-64
2022/11/09 09:07:09;;;;;;;;;;;13.50;99.90;;;;;;5074579;28;20001;-64
2022/11/09 09:09:37;;;;;;;;;;;13.50;99.90;;;;;;5073437;28;20286;-63
2022/11/09 09:12:07;;;;;;;;;;;13.40;99.90;;;;;;5074513;28;20432;-64
2022/11/09 09:14:35;;;;;;;;;;;13.30;99.90;;;;;;5074283;28;20066;-64
2022/11/09 09:17:03;;;;;;;;;;;13.30;99.90;;;;;;5074271;28;19979;-64
2022/11/09 09:19:31;;;;;;;;;;;13.30;99.90;;;;;;5074252;28;19968;-64
2022/11/09 09:22:00;;;;;;;;;;;13.30;99.90;;;;;;5074322;28;19968;-64
2022/11/09 09:24:27;;;;;;;;;;;13.30;99.90;;;;;;5069783;28;20027;-64
2022/11/09 09:26:55;;;;;;;;;;;13.50;99.90;;;;;;5068323;28;19990;-65
2022/11/09 09:29:25;;;;;;;;;;;13.50;99.90;;;;;;5073980;28;19968;-65
2022/11/09 09:31:52;;;;;;;;;;;13.40;99.90;;;;;;5074426;28;19973;-64
2022/11/09 09:34:20;;;;;;;;;;;13.60;99.90;;;;;;5073999;28;19978;-64
2022/11/09 09:36:48;;;;;;;;;;;13.60;99.90;;;;;;5073976;28;19972;-64
2022/11/09 09:39:15;;;;;;;;;;;13.70;99.90;;;;;;5073922;28;20070;-64
2022/11/09 09:41:46;;;;;;;;;;;13.80;99.90;;;;;;5073740;28;19967;-66
2022/11/09 09:44:20;;;;;;;;;;;13.90;99.90;;;;;;5073902;28;20080;-65
2022/11/09 09:46:51;;;;;;;;;;;13.80;99.90;;;;;;5073815;28;20003;-64
2022/11/09 09:49:20;;;;;;;;;;;13.80;99.90;;;;;;5073356;28;19978;-64
2022/11/09 09:51:50;;;;;;;;;;;13.80;99.90;;;;;;5073610;28;20238;-65
2022/11/09 09:54:19;;;;;;;;;;;13.80;99.90;;;;;;5070231;28;19968;-64
2022/11/09 09:56:49;;;;;;;;;;;13.80;99.90;;;;;;5066554;28;20018;-65
2022/11/09 09:59:19;;;;;;;;;;;13.80;99.90;;;;;;5073730;28;19991;-64
2022/11/09 10:01:47;;;;;;;;;;;13.90;99.90;;;;;;5073158;28;19972;-65
2022/11/09 10:04:18;;;;;;;;;;;14.00;99.90;;;;;;5073319;28;19967;-64
2022/11/09 10:06:57;;;;;;;;;;;14.00;99.90;;;;;;5073503;28;19974;-64
2022/11/09 10:09:31;;;;;;;;;;;14.10;99.90;;;;;;5073063;28;20379;-64
2022/11/09 10:12:03;;;;;;;;;;;14.30;99.90;;;;;;5073265;28;19968;-64
2022/11/09 10:14:48;;;;;;;;;;;14.40;99.90;;;;;;5073128;28;20344;-64
2022/11/09 10:17:20;;;;;;;;;;;14.40;99.90;;;;;;5063368;28;19977;-65
2022/11/09 10:19:55;;;;;;;;;;;14.60;99.90;;;;;;5071892;28;19972;-64
2022/11/09 10:22:26;;;;;;;;;;;14.90;99.90;;;;;;5073016;28;20432;-65
2022/11/09 10:24:56;;;;;;;;;;;15.20;99.90;;;;;;5064574;28;19971;-65
2022/11/09 10:27:49;;;;;;;;;;;15.40;99.90;;;;;;5033236;28;19984;-65
2022/11/09 10:30:18;;;;;;;;;;;15.50;99.90;;;;;;5032611;28;20246;-64
2022/11/09 10:32:48;;;;;;;;;;;15.60;99.90;;;;;;5032831;28;20015;-64
2022/11/09 10:35:19;;;;;;;;;;;15.60;99.90;;;;;;5032876;28;20357;-64
2022/11/09 10:37:48;;;;;;;;;;;15.60;99.90;;;;;;5033266;28;20329;-64
2022/11/09 10:40:18;;;;;;;;;;;15.70;99.90;;;;;;5032488;28;20379;-64
2022/11/09 10:42:49;;;;;;;;;;;15.70;99.90;;;;;;5032938;28;20426;-65
2022/11/09 10:45:20;;;;;;;;;;;15.80;99.90;;;;;;5032548;28;19967;-64
2022/11/09 10:47:49;;;;;;;;;;;15.90;99.90;;;;;;5032911;28;19968;-64
2022/11/09 10:50:27;;;;;;;;;;;16.10;99.90;;;;;;5032691;28;19979;-64
2022/11/09 10:53:08;;;;;;;;;;;16.00;99.90;;;;;;5032820;28;19975;-64
2022/11/09 10:55:36;;;;;;;;;;;16.10;99.90;;;;;;5060481;28;20069;-64
2022/11/09 10:58:12;;;;;;;;;;;16.10;99.90;;;;;;5052039;28;19968;-64
2022/11/09 11:00:54;;;;;;;;;;;15.90;99.90;;;;;;5044239;28;19964;-64
2022/11/09 11:03:24;;;;;;;;;;;15.80;99.90;;;;;;5052381;28;19967;-64
2022/11/09 11:05:58;;;;;;;;;;;15.50;99.90;;;;;;5052238;28;19967;-64
2022/11/09 11:08:28;;;;;;;;;;;15.60;99.90;;;;;;5052272;28;20341;-64
2022/11/09 11:11:13;;;;;;;;;;;15.80;99.90;;;;;;5051818;28;19974;-64
2022/11/09 11:14:09;;;;;;;;;;;15.90;99.90;;;;;;5052095;28;19972;-64
2022/11/09 11:16:37;;;;;;;;;;;15.80;99.90;;;;;;5052172;28;19968;-64
2022/11/09 11:19:05;;;;;;;;;;;16.00;99.90;;;;;;5051820;28;20010;-64
2022/11/09 11:21:34;;;;;;;;;;;15.90;99.90;;;;;;5051796;28;20356;-64
2022/11/09 11:24:11;;;;;;;;;;;15.80;99.90;;;;;;5052005;28;20405;-64
2022/11/09 11:26:42;;;;;;;;;;;15.70;99.90;;;;;;5052120;28;19970;-64
2022/11/09 11:29:16;;;;;;;;;;;15.60;99.90;;;;;;5059958;28;19968;-63
2022/11/09 11:31:44;;;;;;;;;;;15.80;99.90;;;;;;5051326;28;19979;-64
2022/11/09 11:34:13;;;;;;;;;;;16.00;99.90;;;;;;5051976;28;19972;-64
2022/11/09 11:37:07;;;;;;;;;;;16.10;99.90;;;;;;5051988;28;20349;-65
2022/11/09 11:39:40;;;;;;;;;;;16.00;99.90;;;;;;5051486;28;20038;-64
2022/11/09 11:42:18;;;;;;;;;;;16.00;99.90;;;;;;5051894;28;19974;-64
2022/11/09 11:44:56;;;;;;;;;;;16.10;99.90;;;;;;5051845;28;19967;-64
2022/11/09 11:47:49;;;;;;;;;;;15.90;99.90;;;;;;5051979;28;19968;-65
2022/11/09 11:50:25;;;;;;;;;;;16.10;99.90;;;;;;5051659;28;20071;-65
2022/11/09 11:53:05;;;;;;;;;;;16.20;99.90;;;;;;5052160;28;20417;-64
2022/11/09 11:55:44;;;;;;;;;;;16.60;99.90;;;;;;5051598;28;19972;-65
2022/11/09 11:58:19;;;;;;;;;;;16.90;99.90;;;;;;5059814;28;19968;-64
2022/11/09 12:00:51;;;;;;;;;;;16.90;99.90;;;;;;5051337;28;20325;-64
2022/11/09 12:03:30;;;;;;;;;;;16.70;99.90;;;;;;5051806;28;20012;-65
2022/11/09 12:06:14;;;;;;;;;;;16.50;99.90;;;;;;5051678;28;19968;-65
2022/11/09 12:08:51;;;;;;;;;;;16.30;99.90;;;;;;5051680;28;19972;-64
2022/11/09 12:11:28;;;;;;;;;;;16.10;99.90;;;;;;5051429;28;19968;-65
2022/11/09 12:14:01;;;;;;;;;;;16.00;99.90;;;;;;5051635;28;20065;-64
2022/11/09 12:16:33;;;;;;;;;;;15.80;99.90;;;;;;5051640;28;20467;-65
2022/11/09 12:19:19;;;;;;;;;;;15.70;99.90;;;;;;5051411;28;20434;-65
2022/11/09 12:21:55;;;;;;;;;;;15.70;99.90;;;;;;5051398;28;20437;-64
2022/11/09 12:24:27;;;;;;;;;;;15.60;99.90;;;;;;5051520;28;19979;-63
2022/11/09 12:27:04;;;;;;;;;;;15.50;99.90;;;;;;5051407;28;19985;-64
2022/11/09 12:29:57;;;;;;;;;;;15.50;99.90;;;;;;5058222;28;19979;-64
2022/11/09 12:32:31;;;;;;;;;;;15.60;99.90;;;;;;5071583;28;20356;-65
2022/11/09 12:35:09;;;;;;;;;;;15.50;99.90;;;;;;5071364;28;19971;-65
2022/11/09 12:37:40;;;;;;;;;;;15.60;99.90;;;;;;5071405;28;19974;-64
2022/11/09 12:40:16;;;;;;;;;;;15.60;99.90;;;;;;5071025;28;20359;-65
2022/11/09 12:42:47;;;;;;;;;;;15.70;99.90;;;;;;5071620;28;20070;-64
2022/11/09 12:45:18;;;;;;;;;;;15.70;99.90;;;;;;5074937;28;19971;-64
2022/11/09 12:47:46;;;;;;;;;;;15.60;99.90;;;;;;5074757;28;19978;-65
2022/11/09 12:50:15;;;;;;;;;;;15.60;99.90;;;;;;5074642;28;19966;-64
2022/11/09 12:52:45;;;;;;;;;;;15.50;99.90;;;;;;5074880;28;19966;-64
2022/11/09 12:55:15;;;;;;;;;;;15.60;99.90;;;;;;5074597;28;19972;-64
2022/11/09 12:57:44;;;;;;;;;;;15.50;99.90;;;;;;5060420;28;19964;-64
2022/11/09 13:00:43;;;;;;;;;;;15.40;99.90;;;;;;5057662;28;19974;-64
2022/11/09 13:03:17;;;;;;;;;;;15.30;99.90;;;;;;5054157;28;20139;-64
2022/11/09 13:05:48;;;;;;;;;;;15.30;99.90;;;;;;5054499;28;20453;-64
2022/11/09 13:08:18;;;;;;;;;;;15.20;99.90;;;;;;5054529;28;20436;-64
2022/11/09 13:11:07;;;;;;;;;;;15.20;99.90;;;;;;5054229;28;19968;-64
2022/11/09 13:13:34;;;;;;;;;;;15.10;99.90;;;;;;5054531;28;20111;-64
2022/11/09 13:16:04;;;;;;;;;;;15.10;99.90;;;;;;5054421;28;20018;-64
2022/11/09 13:18:46;;;;;;;;;;;15.00;99.90;;;;;;5054374;28;19972;-64
2022/11/09 13:21:38;;;;;;;;;;;15.00;99.90;;;;;;5054144;28;19967;-64
2022/11/09 13:24:23;;;;;;;;;;;15.00;99.90;;;;;;5039172;28;19994;-64
2022/11/09 13:26:54;;;;;;;;;;;15.00;99.90;;;;;;5053927;28;20463;-64
2022/11/09 13:29:24;;;;;;;;;;;15.00;99.90;;;;;;5062221;28;20686;-64
2022/11/09 13:31:59;;;;;;;;;;;15.00;99.90;;;;;;5054790;22;20043;-63
2022/11/09 13:34:40;;;;;;;;;;;15.00;99.90;;;;;;5032554;28;20045;-63
2022/11/09 13:37:26;;;;;;;;;;;15.00;99.90;;;;;;5034117;28;19967;-62
2022/11/09 13:39:54;;;;;;;;;;;15.00;99.90;;;;;;5033773;28;19974;-62
2022/11/09 13:42:26;;;;;;;;;;;14.90;99.90;;;;;;5034049;28;20185;-63
2022/11/09 13:44:53;;;;;;;;;;;14.90;99.90;;;;;;5033879;28;19978;-63
2022/11/09 13:47:22;;;;;;;;;;;14.90;99.90;;;;;;5034042;28;20016;-63
2022/11/09 13:49:50;;;;;;;;;;;14.80;99.90;;;;;;5033752;28;19973;-63
2022/11/09 13:52:51;;;;;;;;;;;14.90;99.90;;;;;;5033854;28;19968;-63
2022/11/09 13:55:26;;;;;;;;;;;14.90;99.90;;;;;;5010413;28;19968;-63
2022/11/09 13:57:58;;;;;;;;;;;14.80;99.90;;;;;;4994333;28;20137;-63
2022/11/09 14:00:26;;;;;;;;;;;14.70;99.90;;;;;;5003195;28;20438;-63
2022/11/09 14:02:55;;;;;;;;;;;14.70;99.90;;;;;;5013807;28;19975;-63
2022/11/09 14:05:24;;;;;;;;;;;14.70;99.90;;;;;;5013543;28;19975;-63
2022/11/09 14:07:53;;;;;;;;;;;14.70;99.90;;;;;;5013844;28;20355;-63
2022/11/09 14:10:25;;;;;;;;;;;14.70;99.90;;;;;;5013574;28;20357;-62
2022/11/09 14:13:01;;;;;;;;;;;14.70;99.90;;;;;;5013708;28;20480;-63
2022/11/09 14:15:35;;;;;;;;;;;14.60;99.90;;;;;;5013817;28;19968;-63
2022/11/09 14:18:09;;;;;;;;;;;14.70;99.90;;;;;;5013471;28;20071;-63
2022/11/09 14:20:40;;;;;;;;;;;14.60;99.90;;;;;;5013268;28;20456;-63
2022/11/09 14:23:15;;;;;;;;;;;14.60;99.90;;;;;;5013673;28;19969;-63
2022/11/09 14:25:42;;;;;;;;;;;14.50;99.90;;;;;;5015050;28;19987;-63
2022/11/09 14:28:22;;;;;;;;;;;14.50;99.90;;;;;;5024973;28;19969;-63
2022/11/09 14:30:50;;;;;;;;;;;14.40;99.90;;;;;;5032505;28;19968;-63
2022/11/09 14:33:21;;;;;;;;;;;14.40;99.90;;;;;;5033022;28;19968;-63
2022/11/09 14:35:49;;;;;;;;;;;14.30;99.90;;;;;;5033342;28;19972;-63
2022/11/09 14:38:18;;;;;;;;;;;14.20;99.90;;;;;;5033056;28;19978;-62